Time;durP1;ratioP1;P1;durP2;ratioP2;P2;SDS_P1;SDS_P2;PMS_P1;PMS_P2;Temp;Humidity;BMP_temperature;BMP_pressure;BME280_temperature;BME280_humidity;BME280_pressure;Samples;Min_cycle;Max_cycle;Signal;HPM_P1;HPM_P2
2024/03/19 00:03:29;;;;;;;1.27;1.27;;;10.70;99.90;;;;;;10528532;28;20227;-76
2024/03/19 00:08:33;;;;;;;1.47;1.47;;;10.70;99.90;;;;;;10519245;28;20204;-76
2024/03/19 00:13:35;;;;;;;1.20;1.20;;;10.70;99.90;;;;;;10526909;28;20661;-76
2024/03/19 00:18:37;;;;;;;1.00;1.00;;;10.70;99.90;;;;;;10535711;28;20207;-76
2024/03/19 00:23:41;;;;;;;1.60;1.60;;;10.70;99.90;;;;;;10525146;28;20223;-76
2024/03/19 00:28:43;;;;;;;1.20;1.20;;;10.70;99.90;;;;;;10489992;28;20702;-76
2024/03/19 00:33:48;;;;;;;1.20;1.20;;;10.70;99.90;;;;;;10515373;28;20262;-76
2024/03/19 00:38:51;;;;;;;1.27;1.27;;;10.80;99.90;;;;;;10535600;28;20204;-76
2024/03/19 00:43:54;;;;;;;1.10;1.10;;;10.80;99.90;;;;;;10530118;28;20746;-73
2024/03/19 00:48:57;;;;;;;1.33;1.33;;;10.80;99.90;;;;;;10509827;28;20267;-76
2024/03/19 00:54:00;;;;;;;1.20;1.20;;;10.80;99.90;;;;;;10517084;28;20220;-76
2024/03/19 00:59:03;;;;;;;1.10;1.10;;;10.80;99.90;;;;;;10527510;28;20257;-77
2024/03/19 01:04:05;;;;;;;1.10;1.10;;;10.80;99.90;;;;;;10518301;28;20273;-77
2024/03/19 01:09:12;;;;;;;1.10;1.10;;;10.80;99.90;;;;;;10524685;28;20191;-76
2024/03/19 01:14:14;;;;;;;1.20;1.20;;;10.80;99.90;;;;;;10534609;28;20281;-74
2024/03/19 01:19:17;;;;;;;1.03;1.03;;;10.70;99.90;;;;;;10524011;28;20463;-76
2024/03/19 01:24:20;;;;;;;1.20;1.20;;;10.70;99.90;;;;;;10515507;28;20277;-77
2024/03/19 01:29:23;;;;;;;1.10;1.10;;;10.70;99.90;;;;;;10522614;28;20527;-76
2024/03/19 01:34:25;;;;;;;1.40;1.40;;;10.70;99.90;;;;;;10539057;28;20219;-77
2024/03/19 01:39:29;;;;;;;1.20;1.20;;;10.70;99.90;;;;;;10514316;28;20209;-76
2024/03/19 01:44:31;;;;;;;1.10;1.10;;;10.60;99.90;;;;;;10528995;28;20228;-75
2024/03/19 01:49:34;;;;;;;1.10;1.10;;;10.60;99.90;;;;;;10518340;28;20199;-76
2024/03/19 01:54:38;;;;;;;1.10;1.10;;;10.50;99.90;;;;;;10535641;28;20222;-76
2024/03/19 01:59:42;;;;;;;1.00;1.00;;;10.40;99.90;;;;;;10525958;28;20216;-75
2024/03/19 02:04:44;;;;;;;1.20;1.20;;;10.30;99.90;;;;;;10521732;28;20224;-77
2024/03/19 02:09:49;;;;;;;1.13;1.13;;;10.20;99.90;;;;;;10506674;28;20517;-76
2024/03/19 02:14:52;;;;;;;1.13;1.13;;;10.10;99.90;;;;;;10532437;28;20220;-76
2024/03/19 02:19:54;;;;;;;1.20;1.20;;;10.00;99.90;;;;;;10536604;28;20205;-76
2024/03/19 02:25:00;;;;;;;0.90;0.90;;;9.90;99.90;;;;;;10532794;28;20225;-76
2024/03/19 02:30:03;;;;;;;1.00;1.00;;;9.80;99.90;;;;;;10528727;28;20290;-76
2024/03/19 02:35:06;;;;;;;1.00;1.00;;;;;;;;;;10539031;28;20269;-76
2024/03/19 02:40:11;;;;;;;1.13;1.13;;;9.80;99.90;;;;;;10544143;28;20234;-75
2024/03/19 02:45:13;;;;;;;1.20;1.20;;;9.70;99.90;;;;;;10534159;28;20692;-76
2024/03/19 02:50:16;;;;;;;1.00;1.00;;;9.60;99.90;;;;;;10535870;28;20192;-75
2024/03/19 02:55:19;;;;;;;0.80;0.80;;;9.50;99.90;;;;;;10532558;28;20230;-76
2024/03/19 03:00:22;;;;;;;1.13;1.13;;;9.50;99.90;;;;;;10540579;28;20200;-76
2024/03/19 03:05:24;;;;;;;0.90;0.90;;;9.50;99.90;;;;;;10533762;28;20645;-75
2024/03/19 03:10:28;;;;;;;0.90;0.90;;;9.50;99.90;;;;;;10530406;28;20277;-76
2024/03/19 03:15:30;;;;;;;1.10;1.10;;;9.50;99.90;;;;;;10520759;28;20219;-76
2024/03/19 03:20:33;;;;;;;1.10;1.10;;;9.50;99.90;;;;;;10509806;28;20226;-76
2024/03/19 03:25:36;;;;;;;1.00;1.00;;;9.50;99.90;;;;;;10520166;28;20334;-76
2024/03/19 03:30:39;;;;;;;1.10;1.10;;;9.50;99.90;;;;;;10521398;28;20195;-77
2024/03/19 03:35:42;;;;;;;1.20;1.20;;;9.60;99.90;;;;;;10523713;28;20208;-76
2024/03/19 03:40:46;;;;;;;1.10;1.10;;;9.60;99.90;;;;;;10533623;28;20215;-77
2024/03/19 03:45:50;;;;;;;1.10;1.10;;;9.60;99.90;;;;;;10532220;28;20281;-76
2024/03/19 03:50:53;;;;;;;0.97;0.97;;;9.70;99.90;;;;;;10529542;28;20243;-75
2024/03/19 03:55:56;;;;;;;0.90;0.90;;;9.60;99.90;;;;;;10509426;28;20216;-76
2024/03/19 04:01:01;;;;;;;1.00;1.00;;;9.60;99.90;;;;;;10530296;28;20741;-75
2024/03/19 04:06:03;;;;;;;1.07;1.07;;;9.60;99.90;;;;;;10528481;28;20216;-75
2024/03/19 04:11:09;;;;;;;1.50;1.50;;;9.50;99.90;;;;;;10518312;28;20220;-76
2024/03/19 04:16:12;;;;;;;1.43;1.43;;;9.50;99.90;;;;;;10513471;28;20697;-74
2024/03/19 04:21:14;;;;;;;1.60;1.60;;;9.40;99.90;;;;;;10519523;28;20196;-73
2024/03/19 04:26:18;;;;;;;1.40;1.40;;;9.40;99.90;;;;;;10516972;28;20222;-75
2024/03/19 04:31:20;;;;;;;1.67;1.67;;;9.40;99.90;;;;;;10524445;28;20241;-76
2024/03/19 04:36:23;;;;;;;1.50;1.50;;;9.30;99.90;;;;;;10535864;28;20627;-76
2024/03/19 04:41:27;;;;;;;1.40;1.40;;;9.20;99.90;;;;;;10529551;28;20197;-76
2024/03/19 04:46:29;;;;;;;1.10;1.10;;;9.20;99.90;;;;;;10524135;28;20215;-76
2024/03/19 04:51:32;;;;;;;0.90;0.90;;;9.10;99.90;;;;;;10537468;28;20203;-76
2024/03/19 04:56:36;;;;;;;1.30;1.30;;;9.10;99.90;;;;;;10530854;28;20197;-75
2024/03/19 05:01:38;;;;;;;1.40;1.40;;;9.10;99.90;;;;;;10524494;28;20201;-76
2024/03/19 05:06:41;;;;;;;1.10;1.10;;;9.10;99.90;;;;;;10518737;28;20234;-76
2024/03/19 05:11:45;;;;;;;1.10;1.10;;;9.00;99.90;;;;;;10512486;28;20200;-75
2024/03/19 05:16:47;;;;;;;1.43;1.43;;;9.00;99.90;;;;;;10507435;28;20226;-76
2024/03/19 05:21:49;;;;;;;1.10;1.10;;;8.90;99.90;;;;;;10520482;28;20623;-74
2024/03/19 05:26:53;;;;;;;1.30;1.30;;;8.90;99.90;;;;;;10507304;28;20208;-76
2024/03/19 05:31:55;;;;;;;1.30;1.30;;;8.90;99.90;;;;;;10517100;28;20642;-75
2024/03/19 05:36:58;;;;;;;1.30;1.30;;;8.80;99.90;;;;;;10529879;28;20184;-75
2024/03/19 05:42:01;;;;;;;1.10;1.10;;;8.80;99.90;;;;;;10503379;28;20216;-76
2024/03/19 05:47:04;;;;;;;1.13;1.13;;;8.80;99.90;;;;;;10501929;28;20646;-76
2024/03/19 05:52:08;;;;;;;1.07;1.07;;;8.80;99.90;;;;;;10501893;28;20216;-76
2024/03/19 05:57:11;;;;;;;1.20;1.20;;;8.80;99.90;;;;;;10535314;28;20197;-76
2024/03/19 06:02:14;;;;;;;0.90;0.90;;;8.80;99.90;;;;;;10489598;28;20230;-76
2024/03/19 06:07:16;;;;;;;1.13;1.13;;;8.80;99.90;;;;;;10554638;28;20595;-76
2024/03/19 06:12:20;;;;;;;0.50;0.50;;;8.80;99.90;;;;;;10512784;28;20215;-76
2024/03/19 06:17:22;;;;;;;1.30;1.30;;;8.80;99.90;;;;;;10538159;28;20192;-76
2024/03/19 06:22:26;;;;;;;0.90;0.90;;;8.80;99.90;;;;;;10525948;28;20222;-76
2024/03/19 06:27:29;;;;;;;1.20;1.20;;;8.80;99.90;;;;;;10513989;28;20208;-76
2024/03/19 06:32:32;;;;;;;1.30;1.30;;;8.80;99.90;;;;;;10507419;28;20226;-77
2024/03/19 06:37:34;;;;;;;1.10;1.10;;;8.90;99.90;;;;;;10536409;28;20252;-76
2024/03/19 06:42:38;;;;;;;1.40;1.40;;;8.90;99.90;;;;;;10507585;28;20704;-75
2024/03/19 06:47:40;;;;;;;1.30;1.30;;;9.00;99.90;;;;;;10519510;28;20227;-76
2024/03/19 06:52:44;;;;;;;1.20;1.20;;;9.10;99.90;;;;;;10520926;28;20254;-76
2024/03/19 06:57:47;;;;;;;0.90;0.90;;;9.10;99.90;;;;;;10482691;28;20725;-76
2024/03/19 07:02:50;;;;;;;1.10;1.10;;;9.20;99.90;;;;;;10507845;28;20219;-75
2024/03/19 07:07:54;;;;;;;0.77;0.77;;;9.30;99.90;;;;;;10499521;28;20215;-75
2024/03/19 07:12:58;;;;;;;1.20;1.20;;;9.30;99.90;;;;;;10513135;28;20222;-75
2024/03/19 07:18:01;;;;;;;1.20;1.20;;;9.40;99.90;;;;;;10503011;28;20583;-76
2024/03/19 07:23:05;;;;;;;1.10;1.10;;;9.50;99.90;;;;;;10531422;28;20250;-75
2024/03/19 07:28:10;;;;;;;0.73;0.73;;;9.60;99.90;;;;;;10501408;28;20303;-76
2024/03/19 07:33:12;;;;;;;1.20;1.20;;;9.70;99.90;;;;;;10502611;28;20216;-75
2024/03/19 07:38:14;;;;;;;1.40;1.40;;;10.00;99.90;;;;;;10505009;28;20252;-75
2024/03/19 07:43:18;;;;;;;1.00;1.00;;;10.40;99.90;;;;;;10524622;28;20218;-76
2024/03/19 07:48:21;;;;;;;1.50;1.50;;;10.70;99.90;;;;;;10503950;28;20756;-76
2024/03/19 07:53:24;;;;;;;1.20;1.20;;;11.00;99.90;;;;;;10503838;28;20764;-76
2024/03/19 07:58:28;;;;;;;1.33;1.33;;;11.30;99.90;;;;;;10528884;28;20604;-76
2024/03/19 08:03:31;;;;;;;0.80;0.80;;;11.60;99.90;;;;;;10499141;28;20243;-76
2024/03/19 08:08:33;;;;;;;1.30;1.30;;;11.80;99.90;;;;;;10542086;28;20639;-77
2024/03/19 08:13:37;;;;;;;1.07;1.07;;;12.10;99.90;;;;;;10499781;28;20216;-76
2024/03/19 08:18:39;;;;;;;1.20;1.20;;;12.40;99.90;;;;;;10497071;28;20744;-75
2024/03/19 08:23:46;;;;;;;1.10;1.10;;;12.60;99.90;;;;;;10498056;28;20250;-75
2024/03/19 08:28:50;;;;;;;1.00;1.00;;;12.80;99.90;;;;;;10512483;28;20254;-76
2024/03/19 08:33:52;;;;;;;0.80;0.80;;;12.90;99.90;;;;;;10503877;28;20269;-76
2024/03/19 08:38:54;;;;;;;0.60;0.60;;;13.00;99.90;;;;;;10510575;28;20195;-76
2024/03/19 08:43:58;;;;;;;0.60;0.60;;;13.20;99.90;;;;;;10473838;28;20220;-75
2024/03/19 08:49:00;;;;;;;0.70;0.70;;;13.40;99.90;;;;;;10506167;28;20215;-76
2024/03/19 08:54:04;;;;;;;0.60;0.60;;;13.60;99.90;;;;;;10515241;28;20609;-76
2024/03/19 08:59:08;;;;;;;0.70;0.70;;;13.80;99.90;;;;;;10514103;28;20184;-77
2024/03/19 09:04:10;;;;;;;0.63;0.63;;;13.90;99.90;;;;;;10510255;28;20214;-76
2024/03/19 09:09:13;;;;;;;0.60;0.60;;;14.00;99.90;;;;;;10515004;28;20213;-76
2024/03/19 09:14:17;;;;;;;0.60;0.60;;;14.20;99.90;;;;;;10518364;28;20242;-76
2024/03/19 09:19:19;;;;;;;0.60;0.60;;;14.40;99.90;;;;;;10504384;28;20596;-76
2024/03/19 09:24:22;;;;;;;0.50;0.50;;;14.60;99.90;;;;;;10506848;28;20231;-76
2024/03/19 09:29:25;;;;;;;0.70;0.70;;;14.70;99.90;;;;;;10499633;28;20225;-76
2024/03/19 09:34:28;;;;;;;0.60;0.60;;;14.70;99.90;;;;;;10531665;28;20272;-76
2024/03/19 09:39:30;;;;;;;0.50;0.50;;;14.70;99.90;;;;;;10513775;28;20609;-76
2024/03/19 09:44:34;;;;;;;0.60;0.60;;;14.80;99.90;;;;;;10510744;28;20215;-77
2024/03/19 09:49:38;;;;;;;0.60;0.60;;;14.90;99.90;;;;;;10513957;28;20215;-76
2024/03/19 09:54:41;;;;;;;0.40;0.40;;;14.90;99.90;;;;;;10527578;28;20219;-76
2024/03/19 09:59:45;;;;;;;0.60;0.60;;;14.90;99.90;;;;;;10512249;28;20187;-76
2024/03/19 10:04:49;;;;;;;0.60;0.60;;;14.90;99.90;;;;;;10534113;28;20738;-76
2024/03/19 10:09:52;;;;;;;0.50;0.50;;;14.90;99.90;;;;;;10522290;28;20292;-76
2024/03/19 10:14:56;;;;;;;0.70;0.70;;;14.90;99.90;;;;;;10517422;28;20211;-76
2024/03/19 10:19:58;;;;;;;0.60;0.60;;;14.80;99.90;;;;;;10514020;28;20221;-76
2024/03/19 10:25:01;;;;;;;0.67;0.67;;;14.70;99.90;;;;;;10527235;28;20219;-77
2024/03/19 10:30:06;;;;;;;0.47;0.47;;;14.60;99.90;;;;;;10520858;28;20203;-76
2024/03/19 10:35:18;;;;;;;0.60;0.60;;;14.40;99.90;;;;;;10492993;28;20689;-76
2024/03/19 10:40:22;;;;;;;0.70;0.70;;;14.20;99.90;;;;;;10508445;28;20199;-76
2024/03/19 10:45:28;;;;;;;0.67;0.67;;;14.10;99.90;;;;;;10501712;28;20231;-76
2024/03/19 10:50:31;;;;;;;0.80;0.80;;;14.00;99.90;;;;;;10508386;28;20199;-76
2024/03/19 10:55:37;;;;;;;0.60;0.60;;;13.90;99.90;;;;;;10510373;28;20223;-76
2024/03/19 11:00:42;;;;;;;0.50;0.50;;;13.90;99.90;;;;;;10507451;28;20683;-76
2024/03/19 11:05:46;;;;;;;0.60;0.60;;;13.80;99.90;;;;;;10540021;28;20257;-76
2024/03/19 11:10:49;;;;;;;0.60;0.60;;;13.80;99.90;;;;;;10520460;28;20195;-76
2024/03/19 11:15:53;;;;;;;0.60;0.60;;;13.80;99.90;;;;;;10505534;28;20219;-77
2024/03/19 11:20:55;;;;;;;0.60;0.60;;;13.90;99.90;;;;;;10515780;28;20256;-76
2024/03/19 11:26:02;;;;;;;0.50;0.50;;;13.90;99.90;;;;;;10503915;28;20291;-76
2024/03/19 11:31:06;;;;;;;0.60;0.60;;;14.00;99.90;;;;;;10510491;28;20201;-77
2024/03/19 11:36:09;;;;;;;0.40;0.40;;;14.10;99.90;;;;;;10503956;28;20214;-76
2024/03/19 11:41:12;;;;;;;0.50;0.50;;;14.10;99.90;;;;;;10505092;28;20689;-76
2024/03/19 11:46:16;;;;;;;0.40;0.40;;;14.20;99.90;;;;;;10502120;28;20227;-76
2024/03/19 11:51:19;;;;;;;0.50;0.50;;;14.40;99.90;;;;;;10509620;28;20210;-76
2024/03/19 11:56:21;;;;;;;0.50;0.50;;;14.40;99.90;;;;;;10523064;28;20219;-76
2024/03/19 12:01:25;;;;;;;0.50;0.50;;;14.50;99.90;;;;;;10506511;28;20199;-76
2024/03/19 12:06:28;;;;;;;0.50;0.50;;;14.50;99.90;;;;;;10520651;28;20639;-77
2024/03/19 12:11:30;;;;;;;0.40;0.40;;;14.60;99.90;;;;;;10484166;28;20218;-75
2024/03/19 12:16:34;;;;;;;0.40;0.40;;;14.60;99.90;;;;;;10517737;28;20219;-75
2024/03/19 12:21:40;;;;;;;0.50;0.50;;;14.70;99.90;;;;;;10481720;28;20254;-76
2024/03/19 12:26:44;;;;;;;0.40;0.40;;;14.70;99.90;;;;;;10514883;28;20699;-75
2024/03/19 12:31:59;;;;;;;0.60;0.60;;;14.70;99.90;;;;;;10497114;28;20533;-76
2024/03/19 12:37:01;;;;;;;0.50;0.50;;;14.80;99.90;;;;;;10506441;28;20205;-76
2024/03/19 12:42:08;;;;;;;0.50;0.50;;;14.90;99.90;;;;;;10498893;28;20271;-77
2024/03/19 12:47:13;;;;;;;0.50;0.50;;;14.90;99.90;;;;;;10500517;28;20261;-76
2024/03/19 12:52:15;;;;;;;0.53;0.53;;;15.00;99.90;;;;;;10498713;28;20260;-77
2024/03/19 12:57:19;;;;;;;0.50;0.50;;;15.10;99.90;;;;;;10505302;28;20191;-76
2024/03/19 13:02:22;;;;;;;0.60;0.60;;;15.20;99.90;;;;;;10520629;28;20289;-77
2024/03/19 13:07:25;;;;;;;0.60;0.60;;;15.20;99.90;;;;;;10501301;28;20214;-77
2024/03/19 13:12:27;;;;;;;0.50;0.50;;;15.20;99.90;;;;;;10499668;28;20219;-77
2024/03/19 13:17:31;;;;;;;0.50;0.50;;;15.10;99.90;;;;;;10499518;28;20192;-76
2024/03/19 13:22:34;;;;;;;0.40;0.40;;;15.10;99.90;;;;;;10496654;28;20578;-76
2024/03/19 13:27:36;;;;;;;0.50;0.50;;;15.10;99.90;;;;;;10478317;28;20205;-76
2024/03/19 13:32:40;;;;;;;0.50;0.50;;;15.30;99.90;;;;;;10500445;28;20774;-76
2024/03/19 13:37:42;;;;;;;0.50;0.50;;;15.40;99.90;;;;;;10509391;28;20258;-76
2024/03/19 13:42:44;;;;;;;0.40;0.40;;;15.40;99.90;;;;;;10508394;28;20228;-76
2024/03/19 13:47:48;;;;;;;0.40;0.40;;;15.40;99.90;;;;;;10491179;28;20219;-76
2024/03/19 13:52:51;;;;;;;0.40;0.40;;;15.40;99.90;;;;;;10513065;28;20232;-77
2024/03/19 13:57:53;;;;;;;0.47;0.47;;;15.30;99.90;;;;;;10515637;28;20266;-76
2024/03/19 14:02:57;;;;;;;0.50;0.50;;;15.40;99.90;;;;;;10511201;28;20615;-77
2024/03/19 14:07:59;;;;;;;0.50;0.50;;;15.40;99.90;;;;;;10514060;28;20266;-77
2024/03/19 14:13:02;;;;;;;0.40;0.40;;;15.40;99.90;;;;;;10515110;28;20234;-75
2024/03/19 14:18:07;;;;;;;0.40;0.40;;;15.40;99.90;;;;;;10503997;28;20627;-77
2024/03/19 14:23:10;;;;;;;0.20;0.20;;;15.40;99.90;;;;;;10505797;28;20224;-77
2024/03/19 14:28:12;;;;;;;0.60;0.60;;;15.30;99.90;;;;;;10517538;28;20212;-77
2024/03/19 14:33:16;;;;;;;0.60;0.60;;;15.30;99.90;;;;;;10527111;28;20212;-77
2024/03/19 14:38:18;;;;;;;0.30;0.30;;;15.30;99.90;;;;;;10514678;28;20658;-77
2024/03/19 14:43:21;;;;;;;0.60;0.60;;;15.30;99.90;;;;;;10479170;28;20708;-77
2024/03/19 14:48:25;;;;;;;0.50;0.50;;;15.30;99.90;;;;;;10513649;28;20224;-76
2024/03/19 14:53:27;;;;;;;0.50;0.50;;;15.30;99.90;;;;;;10496284;28;20227;-76
2024/03/19 14:58:30;;;;;;;0.50;0.50;;;15.40;99.90;;;;;;10511226;28;20261;-75
2024/03/19 15:03:34;;;;;;;0.50;0.50;;;15.40;99.90;;;;;;10526692;28;20564;-76
2024/03/19 15:08:36;;;;;;;0.43;0.43;;;15.30;99.90;;;;;;10508310;28;20216;-77
2024/03/19 15:13:38;;;;;;;0.50;0.50;;;15.30;99.90;;;;;;10522651;28;20220;-76
2024/03/19 15:18:42;;;;;;;0.50;0.50;;;15.30;99.90;;;;;;10487113;28;20678;-76
2024/03/19 15:23:45;;;;;;;0.50;0.50;;;15.30;99.90;;;;;;10524354;28;20215;-76
2024/03/19 15:28:48;;;;;;;0.60;0.60;;;15.20;99.90;;;;;;10482543;28;20216;-76
2024/03/19 15:33:52;;;;;;;0.43;0.43;;;15.10;99.90;;;;;;10516148;28;20216;-77
2024/03/19 15:38:54;;;;;;;0.50;0.50;;;15.10;99.90;;;;;;10498350;28;20208;-76
2024/03/19 15:43:56;;;;;;;0.50;0.50;;;15.10;99.90;;;;;;10513723;28;20225;-77
2024/03/19 15:49:00;;;;;;;0.50;0.50;;;15.00;99.90;;;;;;10495161;28;20305;-75
2024/03/19 15:54:02;;;;;;;0.50;0.50;;;14.90;99.90;;;;;;10510371;28;20631;-76
2024/03/19 15:59:05;;;;;;;0.43;0.43;;;14.80;99.90;;;;;;10525744;28;20201;-77
2024/03/19 16:04:09;;;;;;;0.60;0.60;;;14.80;99.90;;;;;;10507134;28;20227;-77
2024/03/19 16:09:12;;;;;;;0.67;0.67;;;14.90;99.90;;;;;;10522420;28;20228;-77
2024/03/19 16:14:14;;;;;;;0.40;0.40;;;14.90;99.90;;;;;;10503953;28;20262;-77
2024/03/19 16:19:18;;;;;;;0.50;0.50;;;14.90;99.90;;;;;;10519147;28;20234;-76
2024/03/19 16:24:20;;;;;;;0.50;0.50;;;14.90;99.90;;;;;;10483214;28;20220;-77
2024/03/19 16:29:23;;;;;;;0.60;0.60;;;14.80;99.90;;;;;;10514658;28;20685;-76
2024/03/19 16:34:26;;;;;;;0.70;0.70;;;14.80;99.90;;;;;;10498071;28;20232;-76
2024/03/19 16:39:30;;;;;;;0.50;0.50;;;14.70;99.90;;;;;;10512631;28;20196;-77
2024/03/19 16:44:33;;;;;;;0.60;0.60;;;14.60;99.90;;;;;;10477707;28;20647;-76
2024/03/19 16:49:37;;;;;;;0.50;0.50;;;14.60;99.90;;;;;;10510534;28;20351;-77
2024/03/19 16:54:40;;;;;;;0.50;0.50;;;14.50;99.90;;;;;;10563362;22;20716;-79
2024/03/19 16:59:43;;;;;;;0.60;0.60;;;14.40;99.90;;;;;;10584468;28;20203;-79
2024/03/19 17:04:46;;;;;;;0.60;0.60;;;14.30;99.90;;;;;;10584312;28;20630;-79
2024/03/19 17:09:49;;;;;;;0.70;0.70;;;14.30;99.90;;;;;;10580524;28;20215;-79
2024/03/19 17:14:51;;;;;;;0.60;0.60;;;14.30;99.90;;;;;;10510988;28;20245;-79
2024/03/19 17:19:55;;;;;;;0.50;0.50;;;14.30;99.90;;;;;;10496950;28;20188;-79
2024/03/19 17:24:57;;;;;;;0.67;0.67;;;14.30;99.90;;;;;;10520006;28;20773;-80
2024/03/19 17:29:59;;;;;;;0.40;0.40;;;14.40;99.90;;;;;;10500907;28;20228;-79
2024/03/19 17:35:03;;;;;;;0.60;0.60;;;14.30;99.90;;;;;;10534782;28;20323;-79
2024/03/19 17:40:08;;;;;;;0.60;0.60;;;14.30;99.90;;;;;;10504994;28;20200;-79
2024/03/19 17:45:10;;;;;;;0.60;0.60;;;14.20;99.90;;;;;;10502306;28;20225;-79
2024/03/19 17:50:16;;;;;;;0.60;0.60;;;14.10;99.90;;;;;;10511532;28;20224;-79
2024/03/19 17:55:18;;;;;;;0.80;0.80;;;13.90;99.90;;;;;;10507490;28;20228;-81
2024/03/19 18:00:21;;;;;;;0.60;0.60;;;13.90;99.90;;;;;;10510320;28;20207;-80
2024/03/19 18:05:25;;;;;;;0.60;0.60;;;13.70;99.90;;;;;;10519697;28;20231;-81
2024/03/19 18:10:27;;;;;;;0.80;0.80;;;13.60;99.90;;;;;;10516087;28;20661;-81
2024/03/19 18:15:30;;;;;;;0.60;0.60;;;13.50;99.90;;;;;;10523244;28;20227;-80
2024/03/19 18:20:34;;;;;;;0.60;0.60;;;13.40;99.90;;;;;;10529923;28;20203;-81
2024/03/19 18:25:36;;;;;;;0.70;0.70;;;13.30;99.90;;;;;;10516863;28;20216;-82
2024/03/19 18:30:38;;;;;;;0.77;0.77;;;13.20;99.90;;;;;;10545043;28;21636;-82
2024/03/19 18:35:42;;;;;;;0.57;0.57;;;13.10;99.90;;;;;;10508563;28;20219;-82
2024/03/19 18:40:47;;;;;;;0.70;0.70;;;13.00;99.90;;;;;;10526253;28;20250;-82
2024/03/19 18:45:50;;;;;;;0.70;0.70;;;12.90;99.90;;;;;;10522580;28;20223;-82
2024/03/19 18:50:54;;;;;;;0.60;0.60;;;12.90;99.90;;;;;;10532877;28;20228;-81
2024/03/19 18:55:56;;;;;;;0.20;0.20;;;12.80;99.90;;;;;;10505394;28;20227;-81
2024/03/19 19:00:59;;;;;;;0.60;0.60;;;12.70;99.90;;;;;;10538993;28;20421;-81
2024/03/19 19:06:04;;;;;;;0.60;0.60;;;12.70;99.90;;;;;;10541016;28;20772;-82
2024/03/19 19:11:06;;;;;;;0.60;0.60;;;12.60;99.90;;;;;;10539498;28;20228;-82
2024/03/19 19:16:08;;;;;;;0.60;0.60;;;12.60;99.90;;;;;;9558459;28;10000323;-82
2024/03/19 19:21:13;;;;;;;0.60;0.60;;;12.50;99.90;;;;;;10457521;28;20452;-82
2024/03/19 19:26:18;;;;;;;0.70;0.70;;;12.40;99.90;;;;;;10439884;28;20772;-82
2024/03/19 19:31:21;;;;;;;0.77;0.77;;;12.30;99.90;;;;;;10418972;28;20232;-82
2024/03/19 19:36:25;;;;;;;0.60;0.60;;;12.30;99.90;;;;;;10421345;28;20241;-82
2024/03/19 19:41:28;;;;;;;0.70;0.70;;;12.20;99.90;;;;;;10399722;28;20410;-82
2024/03/19 19:46:30;;;;;;;0.60;0.60;;;12.10;99.90;;;;;;10408861;28;20221;-82
2024/03/19 19:51:34;;;;;;;0.70;0.70;;;12.10;99.90;;;;;;10407617;28;20217;-81
2024/03/19 19:56:36;;;;;;;0.50;0.50;;;12.00;99.90;;;;;;10416813;28;20660;-80
2024/03/19 20:01:40;;;;;;;0.60;0.60;;;12.00;99.90;;;;;;10422934;28;20222;-80
2024/03/19 20:06:44;;;;;;;0.70;0.70;;;11.90;99.90;;;;;;10409727;28;20236;-82
2024/03/19 20:11:49;;;;;;;0.60;0.60;;;11.90;99.90;;;;;;10415919;28;20288;-80
2024/03/19 20:16:51;;;;;;;0.50;0.50;;;11.90;99.90;;;;;;10415171;28;20218;-81
2024/03/19 20:21:55;;;;;;;0.70;0.70;;;11.80;99.90;;;;;;10395399;28;20271;-80
2024/03/19 20:26:58;;;;;;;0.73;0.73;;;11.80;99.90;;;;;;10411833;28;20226;-83
2024/03/19 20:32:01;;;;;;;0.70;0.70;;;11.80;99.90;;;;;;10389932;28;20267;-83
2024/03/19 20:37:04;;;;;;;0.60;0.60;;;11.70;99.90;;;;;;10409990;28;20213;-82
2024/03/19 20:42:08;;;;;;;0.77;0.77;;;11.60;99.90;;;;;;10409713;28;20213;-83
2024/03/19 20:47:10;;;;;;;0.80;0.80;;;11.60;99.90;;;;;;10386668;28;20198;-82
2024/03/19 20:52:14;;;;;;;0.70;0.70;;;11.60;99.90;;;;;;10397299;28;20224;-82
2024/03/19 20:57:16;;;;;;;0.60;0.60;;;11.50;99.90;;;;;;10420785;28;20206;-84
2024/03/19 21:02:18;;;;;;;0.60;0.60;;;11.50;99.90;;;;;;10413062;28;20194;-83
2024/03/19 21:07:22;;;;;;;0.70;0.70;;;11.50;99.90;;;;;;10404021;28;20210;-83
2024/03/19 21:12:25;;;;;;;0.70;0.70;;;11.50;99.90;;;;;;10422298;28;20299;-83
2024/03/19 21:17:27;;;;;;;0.63;0.63;;;11.40;99.90;;;;;;10399029;28;20197;-82
2024/03/19 21:22:31;;;;;;;0.60;0.60;;;11.30;99.90;;;;;;10415587;28;20280;-81
2024/03/19 21:27:34;;;;;;;0.80;0.80;;;11.30;99.90;;;;;;10409341;28;20216;-83
2024/03/19 21:32:37;;;;;;;0.50;0.50;;;11.30;99.90;;;;;;10414943;28;20276;-82
2024/03/19 21:37:41;;;;;;;0.50;0.50;;;11.30;99.90;;;;;;10413312;28;20287;-82
2024/03/19 21:42:43;;;;;;;0.50;0.50;;;11.20;99.90;;;;;;10391001;28;20754;-82
2024/03/19 21:47:46;;;;;;;0.60;0.60;;;11.20;99.90;;;;;;10381874;28;20198;-82
2024/03/19 21:52:50;;;;;;;0.50;0.50;;;11.20;99.90;;;;;;10415665;28;20214;-83
2024/03/19 21:57:52;;;;;;;0.60;0.60;;;11.10;99.90;;;;;;10407579;28;20260;-82
2024/03/19 22:02:54;;;;;;;0.60;0.60;;;11.10;99.90;;;;;;10411567;28;20218;-82
2024/03/19 22:07:58;;;;;;;0.70;0.70;;;11.10;99.90;;;;;;10401465;28;20205;-82
2024/03/19 22:13:01;;;;;;;0.57;0.57;;;11.10;99.90;;;;;;10427135;28;20606;-82
2024/03/19 22:18:03;;;;;;;0.80;0.80;;;11.10;99.90;;;;;;10395028;28;20234;-82
2024/03/19 22:23:07;;;;;;;0.70;0.70;;;11.00;99.90;;;;;;10392777;28;20233;-82
2024/03/19 22:28:09;;;;;;;0.60;0.60;;;11.10;99.90;;;;;;10382618;28;20195;-82
2024/03/19 22:33:12;;;;;;;0.60;0.60;;;11.10;99.90;;;;;;10389604;28;20276;-82
2024/03/19 22:38:15;;;;;;;0.60;0.60;;;10.90;99.90;;;;;;10401569;28;20205;-83
2024/03/19 22:43:18;;;;;;;0.73;0.73;;;10.90;99.90;;;;;;10404732;28;20728;-82
2024/03/19 22:48:20;;;;;;;0.70;0.70;;;10.80;99.90;;;;;;10398811;28;20220;-82
2024/03/19 22:53:24;;;;;;;0.60;0.60;;;10.70;99.90;;;;;;10404812;28;20222;-82
2024/03/19 22:58:26;;;;;;;0.70;0.70;;;10.70;99.90;;;;;;10399893;28;20725;-82
2024/03/19 23:03:30;;;;;;;0.67;0.67;;;10.80;99.90;;;;;;10408390;23;20195;-75
2024/03/19 23:08:33;;;;;;;0.50;0.50;;;10.80;99.90;;;;;;10453731;28;20204;-76
2024/03/19 23:13:36;;;;;;;0.60;0.60;;;10.90;99.90;;;;;;10440466;28;20252;-77
2024/03/19 23:18:39;;;;;;;0.60;0.60;;;10.90;99.90;;;;;;10418284;28;20272;-78
2024/03/19 23:23:42;;;;;;;0.60;0.60;;;10.90;99.90;;;;;;10424591;28;20283;-78
2024/03/19 23:28:45;;;;;;;0.60;0.60;;;11.00;99.90;;;;;;10443857;28;20201;-78
2024/03/19 23:33:47;;;;;;;0.80;0.80;;;10.90;99.90;;;;;;10422190;28;20218;-78
2024/03/19 23:38:51;;;;;;;0.70;0.70;;;10.90;99.90;;;;;;10420470;28;20245;-77
2024/03/19 23:43:54;;;;;;;0.70;0.70;;;10.90;99.90;;;;;;10423209;28;20271;-75
2024/03/19 23:48:56;;;;;;;0.70;0.70;;;10.90;99.90;;;;;;10436575;28;20686;-77
2024/03/19 23:54:00;;;;;;;0.87;0.87;;;10.90;99.90;;;;;;10439616;28;20222;-76
2024/03/19 23:59:05;;;;;;;0.83;0.83;;;10.90;99.90;;;;;;10431591;28;20212;-76
